Freeport, IL

2:11 PM CDT on September 01, 2014 (GMT -0500)
MesoWest US-20 near Freeport IL US ILDOT | Change Station
CLOSE
Current Station
Personal Weather Station
Location: Freeport, IL
Elevation: 807 ft
Nearby Weather Stations

Elev 807 ft 42.32 °N, 89.61 °W | Updated 46 minutes ago

Mostly Cloudy
Mostly Cloudy
80 °F
Feels Like 82 °F
N
9
Wind Variable Wind from SW
Gusts 20.0 mph

Today
High -- | Low -- °F
--% Chance of Precip.
Yesterday
High -- | Low -- °F
Precip. -- in
6:23 AM 7:32 PM
Waxing Crescent, 43% visible
Pressure 29.79 in
Visibility 10.0 miles
Clouds Mostly Cloudy 3300 ft
Mostly Cloudy 4600 ft
Heat Index 82 °F
Dew Point 66 °F
Humidity 64%
Rainfall -999.00 in
Snow Depth Not available.
UV 4 out of 12
Pollen 6.30 out of 12
Ozone Good
PM2.5 Good
Flu Activity Not available.
METAR KFEP 011855Z AUTO 25010KT 10SM BKN033 BKN046 26/20 A2979

More Conditions Fewer Conditions

Pressure 29.79 in
Visibility 10.0 miles
Clouds Mostly Cloudy 3300 ft
Mostly Cloudy 4600 ft
Heat Index 82 °F
Dew Point 66 °F
Humidity 64%
Rainfall -999.00 in
Snow Depth Not available.
UV 4 out of 12
Pollen 6.30 out of 12
Ozone Good
PM2.5 Good
Flu Activity Not available.
METAR KFEP 011855Z AUTO 25010KT 10SM BKN033 BKN046 26/20 A2979

More Conditions Fewer Conditions

10-Day Weather Forecast

Almanac

Astronomy

Sep. 01, 2014 Rise Set
Actual Time 6:23 AM CDT 7:32 PM CDT
Civil Twilight 5:54 AM CDT 8:01 PM CDT
Nautical Twilight 5:20 AM CDT 8:35 PM CDT
Astronomical Twilight 4:43 AM CDT 9:11 PM CDT
Moon 1:17 PM CDT 11:25 PM CDT
Length of Visible Light 14h 06m
Length of Day
13h 08m
Tomorrow will be 2m 44s shorter.
Waxing Crescent, 43% of the Moon is Illuminated
Today
Waxing Crescent
Sep 2
First Quarter
Sep 8
Full
Sep 15
Last Quarter
Sep 24
New

Today's Extremes

State Highs State Lows

Community

WunderPhotos

Upload Photos

1,749,373 photos uploaded!

WunderBlogs® & News

Nearby

Air Quality

  Air Quality AQ Index Pollutant
Yesterday Good
PM2.5
Yesterday Good
OZONE
Current Good
PM2.5
Current Good
OZONE
Monday Moderate
PM2.5
Tuesday Good
PM2.5

Snow Depth

Station Depth Elevation
No new snow has been reported.

Earthquake Activity

City Distance Mag. Time & Date
No recent earthquake activity has been reported nearby.
Minimum magnitude displayed is 2.5.

Coastal Water Temperatures

Place Temperature
No Stations Reporting

Nearby Weather Stations